Time;durP1;ratioP1;P1;durP2;ratioP2;P2;SDS_P1;SDS_P2;PMS_P1;PMS_P2;Temp;Humidity;BMP_temperature;BMP_pressure;BME280_temperature;BME280_humidity;BME280_pressure;Samples;Min_cycle;Max_cycle;Signal;HPM_P1;HPM_P2
2024/01/07 00:00:03;;;;;;;22.05;10.85;;;0.10;99.90;;;;;;5090092;28;20032;-53
2024/01/07 00:02:30;;;;;;;20.52;10.73;;;0.10;99.90;;;;;;5092912;28;20111;-50
2024/01/07 00:04:56;;;;;;;20.33;11.02;;;0.10;99.90;;;;;;5092536;28;20028;-50
2024/01/07 00:07:22;;;;;;;17.48;9.65;;;0.10;99.90;;;;;;5093275;28;20152;-50
2024/01/07 00:09:47;;;;;;;22.73;9.82;;;0.20;99.90;;;;;;5092134;28;20510;-50
2024/01/07 00:12:13;;;;;;;18.70;9.75;;;0.20;99.90;;;;;;5092690;28;20024;-49
2024/01/07 00:14:39;;;;;;;20.10;9.52;;;0.10;99.90;;;;;;5092516;28;20027;-48
2024/01/07 00:17:04;;;;;;;24.52;9.95;;;0.10;99.90;;;;;;5092869;28;20485;-51
2024/01/07 00:19:31;;;;;;;18.80;8.90;;;0.10;99.90;;;;;;5093146;28;20036;-53
2024/01/07 00:21:57;;;;;;;16.02;8.57;;;0.10;99.90;;;;;;5092607;28;20585;-51
2024/01/07 00:24:25;;;;;;;17.88;9.18;;;0.10;99.90;;;;;;5093207;28;20492;-51
2024/01/07 00:26:51;;;;;;;17.10;8.90;;;0.10;99.90;;;;;;5092331;28;20023;-50
2024/01/07 00:29:17;;;;;;;15.90;8.05;;;0.00;99.90;;;;;;5093200;28;20028;-51
2024/01/07 00:31:42;;;;;;;18.63;8.90;;;0.00;99.90;;;;;;5092512;28;20020;-49
2024/01/07 00:34:08;;;;;;;14.40;7.88;;;0.00;99.90;;;;;;5091007;28;20092;-51
2024/01/07 00:36:33;;;;;;;12.80;8.10;;;0.00;99.90;;;;;;5093391;28;20077;-52
2024/01/07 00:38:59;;;;;;;17.13;8.13;;;0.00;99.90;;;;;;5092324;28;20049;-50
2024/01/07 00:41:25;;;;;;;18.83;8.27;;;0.00;99.90;;;;;;5093467;28;20100;-50
2024/01/07 00:43:50;;;;;;;14.70;8.70;;;0.00;99.90;;;;;;5092450;28;20042;-51
2024/01/07 00:46:16;;;;;;;22.27;9.20;;;0.00;99.90;;;;;;5093537;28;20103;-53
2024/01/07 00:48:42;;;;;;;19.23;9.10;;;0.00;99.90;;;;;;5092145;28;20144;-51
2024/01/07 00:51:07;;;;;;;16.65;8.73;;;0.00;99.90;;;;;;5092454;28;20494;-52
2024/01/07 00:53:33;;;;;;;22.25;9.65;;;0.00;99.90;;;;;;5093612;28;20027;-50
2024/01/07 00:55:59;;;;;;;18.63;9.45;;;0.00;99.90;;;;;;5092618;28;20016;-50
2024/01/07 00:58:24;;;;;;;15.30;8.30;;;0.00;99.90;;;;;;5092042;28;20052;-52
2024/01/07 01:00:50;;;;;;;16.05;9.48;;;-0.10;99.90;;;;;;5092520;28;20103;-51
2024/01/07 01:03:16;;;;;;;17.98;9.68;;;-0.10;99.90;;;;;;5093058;28;20024;-51
2024/01/07 01:05:42;;;;;;;15.05;8.45;;;-0.10;99.90;;;;;;5092603;28;20019;-53
2024/01/07 01:08:08;;;;;;;17.17;8.90;;;-0.10;99.90;;;;;;5092134;28;20054;-50
2024/01/07 01:10:33;;;;;;;18.38;8.90;;;-0.10;99.90;;;;;;5091247;28;20417;-55
2024/01/07 01:12:59;;;;;;;16.65;8.55;;;-0.20;99.90;;;;;;5091709;28;20033;-52
2024/01/07 01:15:24;;;;;;;14.77;9.05;;;-0.10;99.90;;;;;;5093495;28;20036;-51
2024/01/07 01:17:50;;;;;;;17.02;8.95;;;-0.10;99.90;;;;;;5090859;28;20027;-54
2024/01/07 01:20:16;;;;;;;17.35;9.48;;;-0.20;99.90;;;;;;5092675;28;20032;-50
2024/01/07 01:22:41;;;;;;;16.77;8.40;;;-0.20;99.90;;;;;;5093230;28;20046;-53
2024/01/07 01:25:07;;;;;;;17.38;9.00;;;-0.10;99.90;;;;;;5091001;28;20031;-50
2024/01/07 01:27:33;;;;;;;18.42;8.10;;;-0.10;99.90;;;;;;5093678;28;20032;-51
2024/01/07 01:29:59;;;;;;;12.85;7.70;;;-0.10;99.90;;;;;;5092066;28;20055;-52
2024/01/07 01:32:24;;;;;;;17.50;8.25;;;-0.20;99.90;;;;;;5093864;28;20063;-49
2024/01/07 01:34:50;;;;;;;15.10;7.65;;;-0.20;99.90;;;;;;5092542;28;20024;-51
2024/01/07 01:37:16;;;;;;;13.15;7.72;;;-0.20;99.90;;;;;;5092953;28;20282;-50
2024/01/07 01:39:41;;;;;;;13.23;7.15;;;-0.20;99.90;;;;;;5091800;28;20027;-51
2024/01/07 01:42:07;;;;;;;14.35;7.25;;;-0.20;99.90;;;;;;5092980;28;20024;-52
2024/01/07 01:44:34;;;;;;;12.35;8.00;;;-0.20;99.90;;;;;;5093977;28;20027;-48
2024/01/07 01:47:00;;;;;;;13.70;6.60;;;-0.20;99.90;;;;;;5092379;28;20015;-49
2024/01/07 01:49:27;;;;;;;12.18;6.43;;;-0.20;99.90;;;;;;5093793;28;20027;-51
2024/01/07 01:51:53;;;;;;;9.82;6.38;;;-0.20;99.90;;;;;;5092734;28;20124;-49
2024/01/07 01:54:20;;;;;;;14.32;6.93;;;-0.20;99.90;;;;;;5092394;28;20131;-49
2024/01/07 01:56:47;;;;;;;15.02;6.57;;;-0.20;99.90;;;;;;5092674;28;20016;-50
2024/01/07 01:59:14;;;;;;;9.40;6.05;;;-0.20;99.90;;;;;;5092437;28;20099;-49
2024/01/07 02:01:40;;;;;;;10.65;6.57;;;-0.20;99.90;;;;;;5093751;28;20111;-52
2024/01/07 02:04:06;;;;;;;9.20;5.43;;;-0.30;99.90;;;;;;5092648;28;20099;-53
2024/01/07 02:06:32;;;;;;;11.88;5.97;;;-0.20;99.90;;;;;;5094427;28;20437;-49
2024/01/07 02:08:58;;;;;;;11.80;6.13;;;-0.30;99.90;;;;;;5092426;28;20163;-53
2024/01/07 02:11:26;;;;;;;12.77;6.03;;;-0.30;99.90;;;;;;5094498;28;20027;-50
2024/01/07 02:13:52;;;;;;;9.93;5.25;;;-0.20;99.90;;;;;;5093711;28;20220;-49
2024/01/07 02:16:18;;;;;;;8.90;4.60;;;-0.30;99.90;;;;;;5093730;28;20131;-51
2024/01/07 02:18:45;;;;;;;9.30;5.47;;;-0.30;99.90;;;;;;5093295;28;20028;-50
2024/01/07 02:21:12;;;;;;;9.57;4.65;;;-0.20;99.90;;;;;;5092765;28;20321;-51
2024/01/07 02:23:38;;;;;;;8.50;4.60;;;-0.20;99.90;;;;;;5094075;28;20427;-50
2024/01/07 02:26:04;;;;;;;11.90;5.20;;;-0.20;99.90;;;;;;5092818;28;20027;-49
2024/01/07 02:28:34;;;;;;;11.27;6.28;;;-0.20;99.90;;;;;;5094434;28;20082;-51
2024/01/07 02:31:00;;;;;;;9.10;4.75;;;-0.30;99.90;;;;;;5091498;28;20020;-51
2024/01/07 02:33:26;;;;;;;9.23;4.35;;;-0.30;99.90;;;;;;5095222;28;20074;-52
2024/01/07 02:35:51;;;;;;;7.93;4.35;;;-0.30;99.90;;;;;;5093010;28;20016;-51
2024/01/07 02:38:17;;;;;;;11.52;3.95;;;-0.30;99.90;;;;;;5093207;28;20035;-52
2024/01/07 02:40:43;;;;;;;6.18;3.83;;;-0.40;99.90;;;;;;5094149;28;20493;-50
2024/01/07 02:43:09;;;;;;;7.22;3.90;;;-0.30;99.90;;;;;;5092740;28;20020;-49
2024/01/07 02:45:34;;;;;;;8.25;3.58;;;-0.30;99.90;;;;;;5095016;28;20035;-53
2024/01/07 02:48:00;;;;;;;7.80;3.67;;;-0.40;99.90;;;;;;5091234;28;20073;-49
2024/01/07 02:50:25;;;;;;;8.85;3.40;;;-0.40;99.90;;;;;;5095075;28;20085;-50
2024/01/07 02:52:51;;;;;;;5.47;3.15;;;-0.40;99.90;;;;;;5093112;28;20308;-51
2024/01/07 02:55:18;;;;;;;6.38;2.95;;;-0.40;99.90;;;;;;5094443;28;20031;-53
2024/01/07 02:57:43;;;;;;;5.93;2.92;;;-0.40;99.90;;;;;;5094512;28;20023;-50
2024/01/07 03:00:10;;;;;;;12.20;5.93;;;-0.40;99.90;;;;;;5091228;28;20028;-52
2024/01/07 03:02:36;;;;;;;8.10;3.38;;;-0.40;99.90;;;;;;5090700;28;20062;-50
2024/01/07 03:05:02;;;;;;;10.63;3.50;;;-0.40;99.90;;;;;;5093298;28;20044;-54
2024/01/07 03:07:27;;;;;;;6.30;3.03;;;-0.40;99.90;;;;;;5094082;28;20024;-51
2024/01/07 03:09:53;;;;;;;7.78;3.33;;;-0.40;99.90;;;;;;5093221;28;20373;-50
2024/01/07 03:12:18;;;;;;;7.82;3.50;;;-0.40;99.90;;;;;;5092871;28;20103;-52
2024/01/07 03:14:44;;;;;;;3.83;2.72;;;-0.40;99.90;;;;;;5094228;28;20119;-48
2024/01/07 03:17:10;;;;;;;7.13;3.72;;;-0.40;99.90;;;;;;5092982;28;20104;-48
2024/01/07 03:19:38;;;;;;;5.47;3.00;;;-0.40;99.90;;;;;;5090426;28;20024;-51
2024/01/07 03:22:04;;;;;;;6.28;3.05;;;-0.50;99.90;;;;;;5093831;28;20024;-53
2024/01/07 03:24:29;;;;;;;6.25;3.90;;;-0.50;99.90;;;;;;5096312;28;20027;-50
2024/01/07 03:26:55;;;;;;;5.57;3.40;;;-0.50;99.90;;;;;;5093162;28;20099;-51
2024/01/07 03:29:20;;;;;;;5.68;3.22;;;-0.50;99.90;;;;;;5094887;28;20028;-52
2024/01/07 03:31:46;;;;;;;6.47;2.92;;;-0.50;99.90;;;;;;5094772;28;20016;-52
2024/01/07 03:34:12;;;;;;;8.18;3.70;;;-0.50;99.90;;;;;;5091038;28;20483;-56
2024/01/07 03:36:38;;;;;;;4.90;3.17;;;-0.50;99.90;;;;;;5098652;28;20494;-52
2024/01/07 03:39:03;;;;;;;5.50;3.08;;;-0.50;99.90;;;;;;5096989;28;20020;-50
2024/01/07 03:41:29;;;;;;;6.80;2.80;;;-0.50;99.90;;;;;;5099620;28;20409;-51
2024/01/07 03:43:56;;;;;;;4.45;3.00;;;-0.50;99.90;;;;;;5097073;28;20040;-49
2024/01/07 03:46:22;;;;;;;5.38;2.80;;;-0.50;99.90;;;;;;5098100;28;20085;-51
2024/01/07 03:48:47;;;;;;;5.18;3.10;;;-0.50;99.90;;;;;;5098102;28;20497;-50
2024/01/07 03:51:13;;;;;;;7.30;3.20;;;-0.50;99.90;;;;;;5097391;28;20380;-50
2024/01/07 03:53:39;;;;;;;6.63;3.65;;;-0.50;99.90;;;;;;5099712;28;20028;-50
2024/01/07 03:56:05;;;;;;;7.13;3.45;;;-0.50;99.90;;;;;;5095620;28;20137;-53
2024/01/07 03:58:31;;;;;;;7.75;3.80;;;-0.50;99.90;;;;;;5099867;28;20066;-50
2024/01/07 04:00:56;;;;;;;7.28;2.88;;;-0.50;99.90;;;;;;5097244;28;20051;-49
2024/01/07 04:03:22;;;;;;;4.70;2.75;;;-0.50;99.90;;;;;;5099077;28;20089;-53
2024/01/07 04:05:48;;;;;;;6.40;2.80;;;-0.50;99.90;;;;;;5098915;28;20015;-51
2024/01/07 04:08:15;;;;;;;6.07;3.78;;;-0.60;99.90;;;;;;5097585;28;20033;-50
2024/01/07 04:10:41;;;;;;;4.75;3.33;;;-0.60;99.90;;;;;;5099555;28;20047;-51
2024/01/07 04:13:07;;;;;;;4.68;3.05;;;-0.60;99.90;;;;;;5097190;28;20435;-51
2024/01/07 04:15:33;;;;;;;7.70;3.75;;;-0.70;99.90;;;;;;5100599;28;20032;-50
2024/01/07 04:18:03;;;;;;;8.55;4.13;;;-0.70;99.90;;;;;;5091803;28;20027;-50
2024/01/07 04:20:29;;;;;;;6.28;3.35;;;-0.70;99.90;;;;;;5099914;28;20028;-51
2024/01/07 04:22:55;;;;;;;6.18;3.58;;;-0.70;99.90;;;;;;5097742;28;20036;-51
2024/01/07 04:25:21;;;;;;;7.40;3.65;;;-0.70;99.90;;;;;;5098544;28;20048;-51
2024/01/07 04:27:46;;;;;;;6.97;4.50;;;-0.70;99.90;;;;;;5094010;28;20062;-50
2024/01/07 04:30:12;;;;;;;10.57;3.53;;;-0.70;99.90;;;;;;5096983;28;20095;-51
2024/01/07 04:32:37;;;;;;;6.38;3.53;;;-0.70;99.90;;;;;;5099007;28;20051;-49
2024/01/07 04:35:03;;;;;;;5.60;3.40;;;-0.70;99.90;;;;;;5094141;28;20020;-52
2024/01/07 04:37:29;;;;;;;8.15;3.55;;;-0.70;99.90;;;;;;5099928;28;20028;-49
2024/01/07 04:39:55;;;;;;;8.63;4.00;;;-0.80;99.90;;;;;;5097530;28;20111;-49
2024/01/07 04:42:20;;;;;;;6.47;3.40;;;-0.80;99.90;;;;;;5093971;28;20485;-49
2024/01/07 04:44:46;;;;;;;5.22;3.05;;;-0.80;99.90;;;;;;5090328;28;20084;-52
2024/01/07 04:47:30;;;;;;;8.45;4.25;;;-0.80;99.90;;;;;;5100891;28;20028;-49
2024/01/07 04:49:56;;;;;;;6.47;3.47;;;-0.80;99.90;;;;;;5097011;28;20026;-51
2024/01/07 04:52:23;;;;;;;7.07;3.38;;;-0.90;99.90;;;;;;5092038;28;20031;-49
2024/01/07 04:54:53;;;;;;;8.90;4.93;;;-0.90;99.90;;;;;;5101350;28;20043;-51
2024/01/07 04:57:19;;;;;;;;;;;-1.00;99.90;;;;;;5101287;28;20019;-49
2024/01/07 04:59:45;;;;;;;4.85;3.65;;;-0.90;99.90;;;;;;5095525;28;20392;-49
2024/01/07 05:02:11;;;;;;;7.22;3.55;;;-1.00;99.90;;;;;;5091668;28;20028;-51
2024/01/07 05:04:37;;;;;;;7.35;3.40;;;-1.00;99.90;;;;;;5097425;28;20024;-48
2024/01/07 05:07:03;;;;;;;6.82;3.47;;;-1.00;99.90;;;;;;5099662;28;20012;-49
2024/01/07 05:09:29;;;;;;;7.68;3.95;;;-1.00;99.90;;;;;;5103918;28;20388;-51
2024/01/07 05:11:55;;;;;;;8.30;4.43;;;-1.10;99.90;;;;;;5100162;28;20033;-50
2024/01/07 05:14:22;;;;;;;4.78;2.95;;;-1.10;99.90;;;;;;5098874;28;20540;-49
2024/01/07 05:16:48;;;;;;;5.80;3.60;;;-1.10;99.90;;;;;;5099524;28;20049;-51
2024/01/07 05:19:13;;;;;;;9.35;4.32;;;-1.10;99.90;;;;;;5097565;28;20024;-51
2024/01/07 05:21:39;;;;;;;5.88;3.67;;;-1.20;99.90;;;;;;5100725;28;20432;-51
2024/01/07 05:24:05;;;;;;;10.35;5.53;;;-1.20;99.90;;;;;;5097548;28;20026;-51
2024/01/07 05:26:31;;;;;;;8.15;3.75;;;-1.20;99.90;;;;;;5100170;28;20031;-51
2024/01/07 05:28:56;;;;;;;10.00;4.32;;;-1.20;99.90;;;;;;5098213;28;20030;-52
2024/01/07 05:31:22;;;;;;;9.20;4.28;;;-1.20;99.90;;;;;;5097728;28;20389;-49
2024/01/07 05:33:48;;;;;;;8.45;4.00;;;-1.20;99.90;;;;;;5100008;28;20059;-50
2024/01/07 05:36:14;;;;;;;9.55;4.20;;;-1.30;99.90;;;;;;5097889;28;20409;-50
2024/01/07 05:38:42;;;;;;;7.32;3.80;;;-1.30;99.90;;;;;;5100737;28;20039;-52
2024/01/07 05:41:07;;;;;;;6.25;3.63;;;-1.30;99.90;;;;;;5097653;28;20038;-50
2024/01/07 05:43:36;;;;;;;5.20;3.45;;;-1.30;99.90;;;;;;5099776;28;20047;-52
2024/01/07 05:46:03;;;;;;;6.40;4.15;;;-1.30;99.90;;;;;;5096238;28;20023;-51
2024/01/07 05:48:28;;;;;;;11.32;4.10;;;-1.30;99.90;;;;;;5099534;28;20024;-49
2024/01/07 05:50:54;;;;;;;8.85;4.72;;;-1.40;99.90;;;;;;5095361;28;20511;-52
2024/01/07 05:53:20;;;;;;;5.93;3.80;;;-1.40;99.90;;;;;;5092939;28;20456;-52
2024/01/07 05:55:46;;;;;;;5.75;3.58;;;-1.40;99.90;;;;;;5094701;28;20488;-51
2024/01/07 05:58:11;;;;;;;7.82;3.85;;;-1.40;99.90;;;;;;5095317;28;20069;-53
2024/01/07 06:00:38;;;;;;;7.20;4.22;;;-1.40;99.90;;;;;;5101148;28;20031;-52
2024/01/07 06:03:03;;;;;;;6.65;3.55;;;-1.40;99.90;;;;;;5097943;28;20032;-52
2024/01/07 06:05:29;;;;;;;5.95;3.25;;;-1.40;99.90;;;;;;5096461;28;20027;-52
2024/01/07 06:07:55;;;;;;;12.35;4.85;;;-1.40;99.90;;;;;;5097219;28;20031;-52
2024/01/07 06:10:21;;;;;;;8.25;4.13;;;-1.40;99.90;;;;;;5098762;28;20020;-50
2024/01/07 06:12:46;;;;;;;8.93;4.20;;;-1.40;99.90;;;;;;5100495;28;20060;-50
2024/01/07 06:15:12;;;;;;;9.18;4.65;;;-1.40;99.90;;;;;;5096530;28;20020;-49
2024/01/07 06:17:38;;;;;;;10.40;4.78;;;-1.50;99.90;;;;;;5101183;28;20051;-54
2024/01/07 06:20:05;;;;;;;6.60;4.47;;;-1.50;99.90;;;;;;5097753;28;20599;-49
2024/01/07 06:22:31;;;;;;;6.93;4.18;;;-1.40;99.90;;;;;;5100109;28;20019;-48
2024/01/07 06:24:56;;;;;;;7.78;4.00;;;-1.40;99.90;;;;;;5099227;28;20031;-50
2024/01/07 06:27:22;;;;;;;12.20;5.13;;;-1.40;99.90;;;;;;5098931;28;20031;-50
2024/01/07 06:29:48;;;;;;;8.85;4.63;;;-1.40;99.90;;;;;;5100140;28;20169;-50
2024/01/07 06:32:13;;;;;;;8.75;4.57;;;-1.40;99.90;;;;;;5098191;28;20528;-49
2024/01/07 06:34:39;;;;;;;8.43;4.28;;;-1.40;99.90;;;;;;5101106;28;20109;-49
2024/01/07 06:37:05;;;;;;;10.93;5.60;;;-1.30;99.90;;;;;;5098155;28;20389;-47
2024/01/07 06:39:31;;;;;;;6.53;3.55;;;-1.30;99.90;;;;;;5096084;28;20163;-51
2024/01/07 06:41:57;;;;;;;8.05;4.38;;;-1.30;99.90;;;;;;5099311;28;20020;-48
2024/01/07 06:44:23;;;;;;;6.72;5.00;;;-1.30;99.90;;;;;;5099175;28;20366;-50
2024/01/07 06:46:48;;;;;;;6.60;4.07;;;-1.30;99.90;;;;;;5100786;28;20080;-52
2024/01/07 06:49:14;;;;;;;8.50;4.30;;;-1.20;99.90;;;;;;5097643;28;20444;-52
2024/01/07 06:51:39;;;;;;;8.32;4.07;;;-1.20;99.90;;;;;;5101036;28;20055;-52
2024/01/07 06:54:05;;;;;;;7.95;4.68;;;-1.20;99.90;;;;;;5098679;28;20487;-52
2024/01/07 06:56:31;;;;;;;7.68;4.25;;;-1.20;99.90;;;;;;5098290;28;20114;-49
2024/01/07 06:58:57;;;;;;;8.82;4.93;;;-1.20;99.90;;;;;;5099739;28;20045;-51
2024/01/07 07:01:25;;;;;;;7.40;4.10;;;-1.20;99.90;;;;;;5099723;28;20493;-49
2024/01/07 07:03:51;;;;;;;14.23;4.95;;;-1.20;99.90;;;;;;5100898;28;20034;-49
2024/01/07 07:06:17;;;;;;;9.73;4.40;;;-1.10;99.90;;;;;;5098967;28;20016;-49
2024/01/07 07:08:43;;;;;;;12.35;4.90;;;-1.10;99.90;;;;;;5101260;28;20016;-52
2024/01/07 07:11:09;;;;;;;9.02;5.35;;;-1.10;99.90;;;;;;5100761;28;20497;-50
2024/01/07 07:13:34;;;;;;;8.07;3.90;;;-1.10;99.90;;;;;;5105713;28;20089;-51
2024/01/07 07:16:00;;;;;;;8.82;4.80;;;-1.10;99.90;;;;;;5104189;28;20080;-52
2024/01/07 07:18:26;;;;;;;8.15;4.43;;;-1.00;99.90;;;;;;5086936;28;20042;-49
2024/01/07 07:20:52;;;;;;;10.25;4.40;;;-1.00;99.90;;;;;;5102511;28;20103;-49
2024/01/07 07:23:17;;;;;;;11.25;5.35;;;-1.00;99.90;;;;;;5101594;28;20119;-50
2024/01/07 07:25:43;;;;;;;7.68;4.70;;;-1.00;99.90;;;;;;5104650;28;20048;-50
2024/01/07 07:28:09;;;;;;;7.03;4.30;;;-1.00;99.90;;;;;;5103153;28;20448;-52
2024/01/07 07:30:35;;;;;;;8.45;4.90;;;-1.00;99.90;;;;;;5106431;28;20035;-50
2024/01/07 07:33:01;;;;;;;9.00;4.22;;;-0.90;99.90;;;;;;5104111;28;20027;-51
2024/01/07 07:35:28;;;;;;;6.78;4.40;;;-0.90;99.90;;;;;;5104522;28;20028;-52
2024/01/07 07:37:54;;;;;;;8.95;4.57;;;-0.90;99.90;;;;;;5103888;28;20031;-53
2024/01/07 07:40:19;;;;;;;9.25;5.20;;;-0.90;99.90;;;;;;5093041;28;20020;-50
2024/01/07 07:42:45;;;;;;;7.97;4.70;;;-0.90;99.90;;;;;;5101798;28;20544;-52
2024/01/07 07:45:11;;;;;;;8.60;5.18;;;-0.90;99.90;;;;;;5099953;28;20028;-52
2024/01/07 07:47:36;;;;;;;10.88;4.63;;;-0.90;99.90;;;;;;5090772;28;20022;-48
2024/01/07 07:50:02;;;;;;;6.70;3.85;;;-0.90;99.90;;;;;;5097367;28;20017;-53
2024/01/07 07:52:28;;;;;;;9.57;4.60;;;-0.90;99.90;;;;;;5096700;28;20042;-50
2024/01/07 07:54:54;;;;;;;8.27;4.75;;;-0.90;99.90;;;;;;5093450;28;20516;-49
2024/01/07 07:57:21;;;;;;;10.60;5.07;;;-0.90;99.90;;;;;;5092072;28;20107;-50
2024/01/07 07:59:48;;;;;;;9.07;4.53;;;-0.80;99.90;;;;;;5089461;28;20035;-51
2024/01/07 08:02:13;;;;;;;10.45;4.53;;;-0.80;99.90;;;;;;5093674;28;20085;-52
2024/01/07 08:04:41;;;;;;;10.18;5.22;;;-0.80;99.90;;;;;;5093927;28;20093;-53
2024/01/07 08:07:09;;;;;;;7.55;3.88;;;-0.70;99.90;;;;;;5100641;28;20023;-48
2024/01/07 08:09:38;;;;;;;7.68;4.43;;;-0.70;99.90;;;;;;5105715;28;20047;-49
2024/01/07 08:12:05;;;;;;;9.70;4.55;;;-0.70;99.90;;;;;;5101557;28;20023;-50
2024/01/07 08:14:32;;;;;;;8.60;5.07;;;-0.70;99.90;;;;;;5098764;28;20035;-52
2024/01/07 08:16:58;;;;;;;9.63;4.80;;;-0.70;99.90;;;;;;5096118;28;20111;-51
2024/01/07 08:19:23;;;;;;;8.30;4.57;;;-0.60;99.90;;;;;;5097816;28;20181;-51
2024/01/07 08:21:49;;;;;;;7.20;3.78;;;-0.60;99.90;;;;;;5099685;28;20024;-49
2024/01/07 08:24:15;;;;;;;5.85;3.75;;;-0.60;99.90;;;;;;5103611;28;20016;-51
2024/01/07 08:26:40;;;;;;;4.47;3.58;;;-0.60;99.90;;;;;;5100724;28;20107;-53
2024/01/07 08:29:06;;;;;;;10.75;4.32;;;-0.60;99.90;;;;;;5102261;28;20026;-49
2024/01/07 08:31:32;;;;;;;6.82;3.55;;;-0.60;99.90;;;;;;5105727;28;20206;-49
2024/01/07 08:33:58;;;;;;;5.45;3.58;;;-0.60;99.90;;;;;;5105337;28;20096;-49
2024/01/07 08:36:24;;;;;;;6.93;3.65;;;-0.60;99.90;;;;;;5104137;28;20016;-52
2024/01/07 08:38:50;;;;;;;6.70;4.22;;;-0.50;99.90;;;;;;5105637;28;20054;-51
2024/01/07 08:41:18;;;;;;;4.55;3.35;;;-0.50;99.90;;;;;;5103774;27;20358;-49
2024/01/07 08:43:45;;;;;;;7.65;3.40;;;-0.50;99.90;;;;;;5105800;28;20038;-50
2024/01/07 08:46:11;;;;;;;4.63;3.25;;;-0.50;99.90;;;;;;5103539;28;20016;-50
2024/01/07 08:48:36;;;;;;;5.18;3.35;;;-0.60;99.90;;;;;;5093340;28;20434;-51
2024/01/07 08:51:03;;;;;;;6.65;3.58;;;-0.60;99.90;;;;;;5105038;28;20028;-49
2024/01/07 08:53:29;;;;;;;5.05;3.10;;;-0.60;99.90;;;;;;5104956;28;20023;-51
2024/01/07 08:55:54;;;;;;;6.90;3.67;;;-0.60;99.90;;;;;;5105875;28;20027;-52
2024/01/07 08:58:20;;;;;;;5.13;3.38;;;-0.50;99.90;;;;;;5102373;28;20100;-52
2024/01/07 09:00:46;;;;;;;3.80;2.80;;;-0.50;99.90;;;;;;5105666;28;20024;-51
2024/01/07 09:03:11;;;;;;;5.05;3.13;;;-0.50;99.90;;;;;;5103419;28;20126;-50
2024/01/07 09:05:37;;;;;;;5.47;3.25;;;-0.50;99.90;;;;;;5105873;28;20019;-51
2024/01/07 09:08:03;;;;;;;7.15;3.80;;;-0.50;99.90;;;;;;5104616;28;20018;-53
2024/01/07 09:10:28;;;;;;;6.53;3.28;;;-0.50;99.90;;;;;;5104717;28;20024;-51
2024/01/07 09:12:54;;;;;;;5.75;3.38;;;-0.50;99.90;;;;;;5106113;28;20374;-48
2024/01/07 09:15:20;;;;;;;4.30;3.08;;;-0.50;99.90;;;;;;5103634;28;20020;-51
2024/01/07 09:17:47;;;;;;;8.88;3.20;;;-0.40;99.90;;;;;;5104275;28;20024;-48
2024/01/07 09:20:13;;;;;;;5.18;3.03;;;-0.40;99.90;;;;;;5103277;28;20020;-51
2024/01/07 09:22:39;;;;;;;3.35;2.75;;;-0.40;99.90;;;;;;5106081;28;20383;-52
2024/01/07 09:25:05;;;;;;;5.63;3.13;;;-0.30;99.90;;;;;;5104864;28;20098;-52
2024/01/07 09:27:32;;;;;;;8.20;3.30;;;-0.40;99.90;;;;;;5105281;28;20028;-52
2024/01/07 09:29:57;;;;;;;4.45;3.00;;;-0.30;99.90;;;;;;5105741;28;20019;-53
2024/01/07 09:32:23;;;;;;;4.57;2.83;;;-0.30;99.90;;;;;;5104195;28;20242;-49
2024/01/07 09:34:49;;;;;;;5.22;2.78;;;-0.30;99.90;;;;;;5104130;28;20102;-51
2024/01/07 09:37:16;;;;;;;4.90;2.65;;;-0.30;99.90;;;;;;5091221;28;20254;-52
2024/01/07 09:39:41;;;;;;;5.82;2.88;;;-0.30;99.90;;;;;;5091689;28;20088;-51
2024/01/07 09:42:17;;;;;;;6.03;3.17;;;-0.30;99.90;;;;;;5104376;28;20027;-48
2024/01/07 09:44:44;;;;;;;5.28;3.03;;;-0.30;99.90;;;;;;5091666;28;20030;-48
2024/01/07 09:47:14;;;;;;;5.35;2.78;;;-0.30;99.90;;;;;;5104345;28;20081;-52
2024/01/07 09:49:41;;;;;;;5.75;3.08;;;-0.20;99.90;;;;;;5093066;28;20474;-48
2024/01/07 09:52:08;;;;;;;7.15;3.25;;;-0.20;99.90;;;;;;5104584;28;20024;-51
2024/01/07 09:54:37;;;;;;;4.20;2.60;;;-0.20;99.90;;;;;;5105518;28;20023;-53
2024/01/07 09:57:03;;;;;;;4.90;2.95;;;-0.10;99.90;;;;;;5105203;28;20039;-53
2024/01/07 09:59:30;;;;;;;9.30;3.17;;;0.00;99.90;;;;;;5104913;28;20031;-50
2024/01/07 10:01:56;;;;;;;7.03;3.13;;;-0.10;99.90;;;;;;5099316;28;20019;-54
2024/01/07 10:04:23;;;;;;;3.58;2.75;;;-0.10;99.90;;;;;;5104243;28;20102;-50
2024/01/07 10:06:49;;;;;;;7.63;3.35;;;0.00;99.90;;;;;;5101174;28;20488;-51
2024/01/07 10:09:18;;;;;;;4.28;2.92;;;-0.10;99.90;;;;;;5093442;28;20039;-51
2024/01/07 10:11:44;;;;;;;5.50;3.20;;;0.00;99.90;;;;;;5092920;28;20488;-50
2024/01/07 10:14:10;;;;;;;4.07;2.90;;;0.00;99.90;;;;;;5096297;28;20110;-51
2024/01/07 10:16:36;;;;;;;7.38;3.53;;;0.00;99.90;;;;;;5101801;28;20020;-48
2024/01/07 10:19:02;;;;;;;4.78;2.70;;;0.00;99.90;;;;;;5106005;28;20069;-53
2024/01/07 10:21:28;;;;;;;5.45;3.13;;;0.00;99.90;;;;;;5105137;28;20020;-49
2024/01/07 10:24:13;;;;;;;4.63;2.70;;;0.00;99.90;;;;;;5105991;28;20102;-50
2024/01/07 10:26:40;;;;;;;4.20;3.22;;;0.10;99.90;;;;;;5105782;28;20089;-52
2024/01/07 10:29:06;;;;;;;5.60;2.50;;;0.10;99.90;;;;;;5105153;28;20054;-49
2024/01/07 10:31:32;;;;;;;3.70;2.30;;;0.10;99.90;;;;;;5105400;28;20472;-51
2024/01/07 10:33:58;;;;;;;4.75;2.50;;;0.10;99.90;;;;;;5105990;28;20404;-50
2024/01/07 10:36:24;;;;;;;4.78;2.33;;;0.10;99.90;;;;;;5103641;28;20022;-49
2024/01/07 10:38:50;;;;;;;4.47;2.60;;;0.20;99.90;;;;;;5106181;28;20019;-54
2024/01/07 10:41:18;;;;;;;4.00;2.78;;;0.20;99.90;;;;;;5105241;28;20020;-53
2024/01/07 10:43:47;;;;;;;5.03;3.15;;;0.20;99.90;;;;;;5106373;28;20020;-53
2024/01/07 10:46:14;;;;;;;5.93;2.95;;;0.30;99.90;;;;;;5111874;28;20102;-52
2024/01/07 10:48:55;;;;;;;6.88;3.65;;;0.20;99.90;;;;;;5112633;27;20015;-51
2024/01/07 10:51:21;;;;;;;3.85;2.97;;;0.20;99.90;;;;;;5109751;27;20212;-53
2024/01/07 10:53:55;;;;;;;5.82;2.75;;;0.20;99.90;;;;;;5101519;27;20019;-53
2024/01/07 10:56:24;;;;;;;6.60;3.50;;;0.30;99.90;;;;;;5100406;28;20031;-49
2024/01/07 10:58:54;;;;;;;2.93;2.17;;;0.20;99.90;;;;;;5100636;27;20082;-53
2024/01/07 11:01:21;;;;;;;3.47;1.93;;;0.20;99.90;;;;;;5110801;28;20020;-50
2024/01/07 11:03:59;;;;;;;7.18;2.90;;;0.30;99.90;;;;;;5111504;28;20391;-53
2024/01/07 11:06:33;;;;;;;5.55;2.95;;;0.30;99.90;;;;;;5102714;28;20032;-50
2024/01/07 11:09:05;;;;;;;6.55;4.05;;;0.30;99.90;;;;;;5107042;28;20016;-52
2024/01/07 11:11:41;;;;;;;5.57;2.85;;;0.40;99.90;;;;;;5112008;28;20023;-51
2024/01/07 11:14:39;;;;;;;8.68;3.60;;;0.30;99.90;;;;;;5111847;28;20392;-52
2024/01/07 11:17:09;;;;;;;8.68;3.67;;;0.40;99.90;;;;;;5104780;28;20023;-51
2024/01/07 11:19:38;;;;;;;4.63;3.00;;;0.40;99.90;;;;;;5112718;28;20019;-50
2024/01/07 11:22:29;;;;;;;5.97;3.20;;;0.40;99.90;;;;;;5113477;27;20036;-51
2024/01/07 11:24:56;;;;;;;6.95;3.55;;;0.40;99.90;;;;;;5113595;27;20077;-49
2024/01/07 11:27:23;;;;;;;8.52;3.95;;;0.40;99.90;;;;;;5112680;27;20016;-50
2024/01/07 11:30:06;;;;;;;7.13;3.40;;;0.40;99.90;;;;;;5113451;28;20056;-52
2024/01/07 11:32:34;;;;;;;6.93;3.45;;;0.40;99.90;;;;;;5112596;28;20110;-50
2024/01/07 11:35:01;;;;;;;5.47;3.53;;;0.50;99.90;;;;;;5107220;27;20024;-52
2024/01/07 11:37:26;;;;;;;5.72;3.20;;;0.50;99.90;;;;;;5112915;28;20028;-51
2024/01/07 11:39:57;;;;;;;5.68;2.95;;;0.50;99.90;;;;;;5096313;27;20481;-50
2024/01/07 11:42:23;;;;;;;;;;;0.50;99.90;;;;;;5095232;28;20081;-52
2024/01/07 11:44:53;;;;;;;6.53;3.40;;;0.50;99.90;;;;;;5099651;28;19904;-53
2024/01/07 11:47:20;;;;;;;5.50;3.28;;;0.50;99.90;;;;;;5111856;28;20103;-53
2024/01/07 11:49:47;;;;;;;6.35;4.05;;;0.50;99.90;;;;;;5113604;27;20396;-53
2024/01/07 11:52:13;;;;;;;5.07;3.42;;;0.50;99.90;;;;;;5113428;27;20042;-50
2024/01/07 11:54:39;;;;;;;6.85;3.75;;;0.50;99.90;;;;;;5113982;27;20020;-50
2024/01/07 11:57:09;;;;;;;8.80;4.18;;;0.40;99.90;;;;;;5111093;27;20551;-53
2024/01/07 11:59:36;;;;;;;10.32;4.32;;;0.40;99.90;;;;;;5110000;28;20024;-51
2024/01/07 12:02:04;;;;;;;6.47;3.90;;;0.40;99.90;;;;;;5110806;27;20092;-53
2024/01/07 12:04:33;;;;;;;5.72;3.72;;;0.40;99.90;;;;;;5109289;28;20036;-52
2024/01/07 12:06:58;;;;;;;5.82;3.95;;;0.40;99.90;;;;;;5111066;28;20024;-50
2024/01/07 12:09:25;;;;;;;8.23;3.30;;;0.40;99.90;;;;;;5109913;28;20026;-52
2024/01/07 12:11:52;;;;;;;5.63;3.30;;;0.40;99.90;;;;;;5110873;28;20019;-53
2024/01/07 12:14:19;;;;;;;4.63;3.17;;;0.50;99.90;;;;;;5110677;27;20472;-52
2024/01/07 12:16:45;;;;;;;6.57;3.05;;;0.50;99.90;;;;;;5110552;28;20019;-51
2024/01/07 12:19:11;;;;;;;8.10;4.18;;;0.40;99.90;;;;;;5110145;28;20302;-53
2024/01/07 12:21:37;;;;;;;6.70;3.67;;;0.50;99.90;;;;;;5110772;28;20028;-50
2024/01/07 12:24:04;;;;;;;6.22;3.28;;;0.40;99.90;;;;;;5110291;27;20076;-50
2024/01/07 12:26:32;;;;;;;6.65;3.67;;;0.40;99.90;;;;;;5101910;28;20032;-52
2024/01/07 12:29:00;;;;;;;4.43;3.17;;;0.50;99.90;;;;;;5099305;28;20019;-53
2024/01/07 12:31:32;;;;;;;5.22;3.20;;;0.50;99.90;;;;;;5110274;28;20144;-51
2024/01/07 12:33:58;;;;;;;7.38;3.13;;;0.50;99.90;;;;;;5103007;28;20034;-51
2024/01/07 12:36:24;;;;;;;7.78;3.55;;;0.60;99.90;;;;;;5101853;28;20545;-53
2024/01/07 12:38:51;;;;;;;4.53;2.65;;;0.60;99.90;;;;;;5098988;28;20033;-53
2024/01/07 12:41:17;;;;;;;7.53;3.60;;;0.60;99.90;;;;;;5109893;28;20028;-51
2024/01/07 12:43:43;;;;;;;7.80;3.10;;;0.60;99.90;;;;;;5110353;28;20020;-50